• Join FlightAware (Why Join?)
  • Login
  • US Flag 
02:55PM EDT


 

Airport Tracker/Info


-or-


 

Live Flight TrackerFlight Track Log ✈ UAL3272 ✈ 11-May-2013 ✈ KIAH - KDEN

Flight Track Log - Related Links

Times and Time Zones

All times are in EDT time to prevent confusion due to time zone crossing. See the UAL3272 flight status page for this flight to view local times or setup timezone preferences in your user account.

Time Position Orientation Groundspeed Altitude Reporting Facility
EDT Latitude Longitude Course Direction KTS MPH feet Rate Location/Type
07:04AM 29.9572 -95.3392 334° Northwest 175 201 700  Level Houston Center
07:05AM 29.9775 -95.2861 66° East 184 212 3,500 1,620 Climbing Houston Center
07:06AM 29.9850 -95.2856 North 181 208 3,600 1,560 Climbing Houston Center
07:07AM 30.2743 -95.5026 332° Northwest  Level FlightAware Approximate
07:07AM 30.0442 -95.3106 340° North 215 247 5,500  Level Houston Center
07:08AM 30.3703 -95.5613 334° Northwest  Level FlightAware Approximate
07:08AM 30.1008 -95.3500 329° Northwest 234 269 7,500  Level Houston Center
07:09AM 30.4683 -95.6157 334° Northwest  Level FlightAware Approximate
07:09AM 30.1633 -95.3925 330° Northwest 252 290 9,500  Level Houston Center
07:10AM 30.2275 -95.4372 329° Northwest 264 304 10,800 900 Climbing Houston Center
07:11AM 30.3022 -95.4892 329° Northwest 299 344 11,300 1,140 Climbing Houston Center
07:12AM 30.3822 -95.5447 329° Northwest 327 376 13,100 1,380 Climbing Houston Center
07:13AM 30.4617 -95.5989 330° Northwest 331 381 14,200 1,140 Climbing Houston Center
07:14AM 30.5450 -95.6575 329° Northwest 339 390 15,400 1,080 Climbing Houston Center
07:15AM 30.6297 -95.7025 335° Northwest 346 398 16,400 1,020 Climbing Houston Center
07:16AM 30.7242 -95.7533 335° Northwest 358 412 17,500 960 Climbing Houston Center
07:17AM 30.8169 -95.8022 336° Northwest 363 418 18,400 960 Climbing Houston Center
07:18AM 30.9106 -95.8519 336° Northwest 368 423 19,500 1,020 Climbing Houston Center
07:19AM 31.0058 -95.9033 335° Northwest 374 430 20,500 960 Climbing Houston Center
07:20AM 31.1011 -95.9550 335° Northwest 375 432 21,500 1,080 Climbing Houston Center
07:21AM 31.2139 -96.0019 340° North 372 428 22,700 1,080 Climbing Fort Worth Center
07:22AM 31.3186 -96.0442 341° North 394 453 23,700 1,140 Climbing Fort Worth Center
07:23AM 31.4233 -96.0817 343° North 389 448 25,000 1,200 Climbing Fort Worth Center
07:24AM 31.5139 -96.1364 333° Northwest 376 433 26,200 1,020 Climbing Fort Worth Center
07:25AM 31.5894 -96.1964 326° Northwest 370 426 27,100 900 Climbing Fort Worth Center
07:26AM 31.6736 -96.2661 325° Northwest 369 425 28,100 960 Climbing Fort Worth Center
07:27AM 31.7556 -96.3336 325° Northwest 364 419 29,100 960 Climbing Fort Worth Center
07:28AM 31.8419 -96.4033 326° Northwest 365 420 30,100 1,020 Climbing Fort Worth Center
07:29AM 31.9281 -96.4733 325° Northwest 365 420 31,200 1,020 Climbing Fort Worth Center
07:30AM 32.0119 -96.5436 325° Northwest 370 426 32,200 960 Climbing Fort Worth Center
07:31AM 32.0981 -96.6139 325° Northwest 375 432 33,200 1,200 Climbing Fort Worth Center
07:32AM 32.1842 -96.6844 325° Northwest 375 432 34,700 1,380 Climbing Fort Worth Center
07:33AM 32.2681 -96.7575 324° Northwest 363 418 36,000 600 Climbing Fort Worth Center
07:34AM 32.3414 -96.8183 325° Northwest 352 405 36,000  Level Fort Worth Center
07:35AM 32.4356 -96.8939 326° Northwest 367 422 36,000  Level Fort Worth Center
07:36AM 32.5172 -96.9600 326° Northwest 378 435 36,000  Level Fort Worth Center
07:37AM 32.6200 -97.0433 326° Northwest 397 457 36,000  Level Fort Worth Center
07:38AM 32.7056 -97.1147 325° Northwest 411 473 36,000  Level Fort Worth Center
07:39AM 32.8103 -97.2008 325° Northwest 417 480 36,000  Level Fort Worth Center
07:40AM 32.8958 -97.2747 324° Northwest 417 480 36,000  Level Fort Worth Center
07:41AM 33.0025 -97.3614 326° Northwest 417 480 36,000  Level Fort Worth Center
07:42AM 33.0858 -97.4308 325° Northwest 417 480 36,000  Level Fort Worth Center
07:43AM 33.1903 -97.5203 324° Northwest 417 480 36,000  Level Fort Worth Center
07:44AM 33.2736 -97.5947 323° Northwest 417 480 36,000  Level Fort Worth Center
07:45AM 33.3694 -97.6747 325° Northwest 417 480 36,000  Level Fort Worth Center
07:46AM 33.4736 -97.7622 325° Northwest 422 486 36,000  Level Fort Worth Center
07:47AM 33.5717 -97.8447 325° Northwest 429 494 36,000  Level Fort Worth Center
07:48AM 33.6653 -97.9250 324° Northwest 424 488 36,000  Level Fort Worth Center
07:49AM 33.7503 -97.9981 324° Northwest 424 488 36,000  Level Fort Worth Center
07:50AM 33.8461 -98.0786 325° Northwest 419 482 36,000  Level Fort Worth Center
07:51AM 33.9456 -98.1672 324° Northwest 411 473 36,000  Level Fort Worth Center
07:52AM 34.0392 -98.2431 326° Northwest 406 467 36,000  Level Fort Worth Center
07:53AM 34.1303 -98.3344 320° Northwest 406 467 36,000  Level Fort Worth Center
07:54AM 34.2214 -98.4106 325° Northwest 411 473 36,000  Level Fort Worth Center
07:55AM 34.3167 -98.4947 324° Northwest 417 480 36,000  Level Fort Worth Center
07:56AM 34.4100 -98.5764 324° Northwest 417 480 36,000  Level Fort Worth Center
07:57AM 34.5031 -98.6583 324° Northwest 417 480 36,000  Level Fort Worth Center
07:58AM 34.6003 -98.7431 324° Northwest 422 486 36,000  Level Fort Worth Center
07:59AM 34.6975 -98.8228 326° Northwest 422 486 36,000  Level Fort Worth Center
08:00AM 34.7925 -98.9078 324° Northwest 427 491 36,000  Level Fort Worth Center
08:01AM 34.8872 -98.9881 325° Northwest 427 491 36,000  Level Fort Worth Center
08:02AM 34.9781 -99.0708 323° Northwest 421 484 36,000  Level Fort Worth Center
08:03AM 35.0728 -99.1564 324° Northwest 421 484 36,000  Level Fort Worth Center
08:04AM 35.2286 -99.2942 324° Northwest 427 491 36,000  Level Kansas City Center
08:05AM 35.3272 -99.3828 324° Northwest 434 499 36,000  Level Kansas City Center
08:06AM 35.4253 -99.4711 324° Northwest 435 501 36,000  Level Kansas City Center
08:07AM 35.5211 -99.5581 324° Northwest 428 493 36,000  Level Kansas City Center
08:08AM 35.6178 -99.6450 324° Northwest 426 490 36,000  Level Kansas City Center
08:09AM 35.7136 -99.7328 323° Northwest 426 490 36,000  Level Kansas City Center
08:10AM 35.8089 -99.8194 324° Northwest 423 487 36,000  Level Kansas City Center
08:11AM 35.9025 -99.9047 324° Northwest 418 481 36,000  Level Kansas City Center
08:12AM 35.9953 -99.9908 323° Northwest 415 478 36,000  Level Kansas City Center
08:13AM 36.0900 -100.0758 324° Northwest 416 479 36,000  Level Kansas City Center
08:15AM 36.1844 -100.1636 323° Northwest 419 482 36,000  Level Kansas City Center
08:16AM 36.2800 -100.2514 323° Northwest 424 488 36,000  Level Kansas City Center
08:17AM 36.3753 -100.3408 323° Northwest 426 490 36,000  Level Kansas City Center
08:18AM 36.4672 -100.4247 324° Northwest 426 490 36,000  Level Kansas City Center
08:19AM 36.5733 -100.5256 323° Northwest 429 494 36,000  Level Kansas City Center
08:20AM 36.6661 -100.6108 324° Northwest 431 496 36,000  Level Kansas City Center
08:21AM 36.7581 -100.6981 323° Northwest 433 498 36,000  Level Kansas City Center
08:22AM 36.8650 -100.8006 323° Northwest 432 497 36,000  Level Kansas City Center
08:23AM 36.9572 -100.8864 323° Northwest 431 496 36,000  Level Kansas City Center
08:24AM 37.0475 -100.9756 322° Northwest 430 495 36,000  Level Kansas City Center
08:25AM 37.1350 -101.1025 311° West 429 494 36,000  Level Kansas City Center
08:26AM 37.2100 -101.2122 311° West 431 496 36,000  Level Kansas City Center
08:27AM 37.2850 -101.3214 311° West 429 494 36,000  Level Kansas City Center
08:28AM 37.3711 -101.4489 310° West 427 491 36,000  Level Kansas City Center
08:29AM 37.4450 -101.5581 310° West 427 491 36,000  Level Kansas City Center
08:30AM 37.5183 -101.6669 310° West 425 489 36,000  Level Kansas City Center
08:31AM 37.6039 -101.7944 310° West 424 488 36,000  Level Kansas City Center
08:32AM 37.6772 -101.9033 310° West 424 488 36,000  Level Kansas City Center
08:33AM 37.7494 -102.0119 310° West 422 486 36,000  Level Kansas City Center
08:34AM 37.8219 -102.1208 310° West 422 486 36,000  Level Denver Center
08:35AM 37.8981 -102.2242 313° West 419 482 36,000  Level Denver Center
08:36AM 37.9756 -102.3283 313° West 422 486 36,000  Level Denver Center
08:37AM 38.0528 -102.4333 313° West 424 488 36,000  Level Denver Center
08:38AM 38.1425 -102.5572 313° West 427 491 36,000 -60 Level Denver Center
08:39AM 38.2197 -102.6628 313° West 426 490 35,900 -600 Descending Denver Center
08:40AM 38.2942 -102.7647 313° West 410 472 34,800 -1,200 Descending Denver Center
08:41AM 38.3803 -102.8847 312° West 410 472 33,500 -1,260 Descending Denver Center
08:42AM 38.4544 -102.9858 313° West 409 471 32,300 -780 Descending Denver Center
08:43AM 38.5286 -103.0886 313° West 410 472 32,000 -180 Descending Denver Center
08:44AM 38.6147 -103.2097 312° West 419 482 32,000 -660 Level Denver Center
08:45AM 38.7017 -103.3325 312° West 418 481 30,600 -1,860 Descending Denver Center
08:46AM 38.7864 -103.4503 313° West 407 468 28,300 -2,220 Descending Denver Center
08:47AM 38.8622 -103.5567 312° West 417 480 26,200 -1,980 Descending Denver Center
08:48AM 38.9367 -103.6622 312° West 417 480 24,300 -2,100 Descending Denver Center
08:49AM 39.0181 -103.7778 312° West 389 448 22,000 -2,160 Descending Denver Center
08:50AM 39.0858 -103.8742 312° West 379 436 20,000 -2,040 Descending Denver Center
08:51AM 39.1506 -103.9700 311° West 375 432 17,900 -1,440 Descending Denver Center
08:52AM 39.2214 -104.0681 313° West 356 410 17,100 -600 Descending Denver Center
08:53AM 39.2669 -104.1544 304° West 321 369 16,800 -960 Descending Denver Center
08:54AM 39.2906 -104.2619 286° West 289 333 15,200 -1,380 Descending Denver Center
08:55AM 39.3108 -104.3550 286° West 275 316 14,100 -600 Descending Denver Center
08:56AM 39.3264 -104.4206 287° West 256 295 14,000 -900 Descending Denver Center
08:57AM 39.3539 -104.5242 289° West 250 288 12,400 -1,380 Descending Denver Center
08:58AM 39.4000 -104.5861 314° West 243 280 11,200 -1,200 Descending Denver Center
08:59AM 39.4575 -104.6286 330° Northwest 240 276 10,100 -600 Descending Denver Center
09:00AM 39.5150 -104.6672 333° Northwest 234 269 10,100  Level Denver Center
09:01AM 39.5711 -104.6639 North 236 272 10,100 -600 Level Denver Center
09:02AM 39.6514 -104.6628 North 235 270 9,000 -1,140 Descending Denver Center
09:03AM 39.7128 -104.6622 360° North 224 258 7,800 -1,200 Descending Denver Center